Saint-Pierre Airport

Airport
ICAO code: 
LFVP
IATA Code: 
FSP
Summary
ICAO Region: 
NAT
Territory: 
Location: 
Saint-Pierre et Michelon, North Atlantic,
Serving: 
Saint-Pierre
Elevation: 
27 ft
Coordinates: 
Aerial View: 
46° 45' 45.18" N, 56° 10' 32.941" W
Metar
Observation
LFVP 051700Z 23016KT 9999 BKN040 03/M03 Q1021 NOSIG
Station
Saint-Pierre
Date/Time
2021-12-05 17:00:00
Wind direction
230°
Wind speed
16 kts
Lowest cloud amount
broken clouds
Temperature
3°C
Dew point
-3°C
Humidity
64%
QNH
1021 hPa
Weather condition
n/a

Description

Airport serving the island of St Pierre, part of the French territory St Pierre et Michelon off the eastern coast of Canada near St Johns

Climatology

Humid Continental climate (Köppen climate classification Dfb) - Variable weather patterns and a large seasonal temperature variance. Summers are often warm and humid with frequent thunderstorms and winters can be very cold with frequent snowfall and persistent snow cover.

The separate article climate Newfoundland contains more detail on the climate of Newfoundland and associated weather phenomena.

Runways

Designator Length Width Surface Rops
8/26 1798 46 ASP No/No
Airport map: 
Aerial View: 

SKYbrary Partners:

Safety knowledge contributed by: